sensor_id;sensor_type;location;lat;lon;timestamp;P1;durP1;ratioP1;P2;durP2;ratioP2
58101;SDS011;52034;51.926;6.320;2023-07-20T00:00:25;4.57;;;4.03;;
58101;SDS011;52034;51.926;6.320;2023-07-20T00:01:25;6.83;;;4.00;;
58101;SDS011;52034;51.926;6.320;2023-07-20T00:02:26;6.57;;;4.20;;
58101;SDS011;52034;51.926;6.320;2023-07-20T00:03:26;6.93;;;4.60;;
58101;SDS011;52034;51.926;6.320;2023-07-20T00:04:27;9.73;;;4.33;;
58101;SDS011;52034;51.926;6.320;2023-07-20T00:05:27;6.30;;;4.57;;
58101;SDS011;52034;51.926;6.320;2023-07-20T00:06:28;6.53;;;4.57;;
58101;SDS011;52034;51.926;6.320;2023-07-20T00:07:28;7.97;;;5.00;;
58101;SDS011;52034;51.926;6.320;2023-07-20T00:08:28;8.13;;;4.50;;
58101;SDS011;52034;51.926;6.320;2023-07-20T00:09:29;4.60;;;4.00;;
58101;SDS011;52034;51.926;6.320;2023-07-20T00:10:29;6.17;;;4.40;;
58101;SDS011;52034;51.926;6.320;2023-07-20T00:11:29;7.03;;;4.60;;
58101;SDS011;52034;51.926;6.320;2023-07-20T00:12:30;5.53;;;4.67;;
58101;SDS011;52034;51.926;6.320;2023-07-20T00:13:30;6.27;;;5.13;;
58101;SDS011;52034;51.926;6.320;2023-07-20T00:14:30;8.30;;;5.27;;
58101;SDS011;52034;51.926;6.320;2023-07-20T00:15:32;8.90;;;5.18;;
58101;SDS011;52034;51.926;6.320;2023-07-20T00:16:32;9.63;;;5.10;;
58101;SDS011;52034;51.926;6.320;2023-07-20T00:17:33;6.87;;;5.07;;
58101;SDS011;52034;51.926;6.320;2023-07-20T00:18:33;6.63;;;5.50;;
58101;SDS011;52034;51.926;6.320;2023-07-20T00:19:33;10.30;;;4.97;;
58101;SDS011;52034;51.926;6.320;2023-07-20T00:20:35;9.07;;;5.22;;
58101;SDS011;52034;51.926;6.320;2023-07-20T00:21:35;6.37;;;4.87;;
58101;SDS011;52034;51.926;6.320;2023-07-20T00:22:36;9.63;;;5.85;;
58101;SDS011;52034;51.926;6.320;2023-07-20T00:23:37;6.93;;;4.77;;
58101;SDS011;52034;51.926;6.320;2023-07-20T00:24:38;6.77;;;5.07;;
58101;SDS011;52034;51.926;6.320;2023-07-20T00:25:38;7.47;;;5.13;;
58101;SDS011;52034;51.926;6.320;2023-07-20T00:26:38;8.67;;;5.20;;
58101;SDS011;52034;51.926;6.320;2023-07-20T00:27:39;7.53;;;5.23;;
58101;SDS011;52034;51.926;6.320;2023-07-20T00:28:39;8.57;;;5.27;;
58101;SDS011;52034;51.926;6.320;2023-07-20T00:29:39;8.60;;;5.50;;
58101;SDS011;52034;51.926;6.320;2023-07-20T00:30:40;7.13;;;5.87;;
58101;SDS011;52034;51.926;6.320;2023-07-20T00:31:40;7.00;;;5.03;;
58101;SDS011;52034;51.926;6.320;2023-07-20T00:32:44;7.63;;;5.50;;
58101;SDS011;52034;51.926;6.320;2023-07-20T00:33:44;8.63;;;5.50;;
58101;SDS011;52034;51.926;6.320;2023-07-20T00:34:45;7.90;;;5.73;;
58101;SDS011;52034;51.926;6.320;2023-07-20T00:35:45;5.70;;;4.90;;
58101;SDS011;52034;51.926;6.320;2023-07-20T00:36:46;8.30;;;5.53;;
58101;SDS011;52034;51.926;6.320;2023-07-20T00:37:46;7.80;;;5.67;;
58101;SDS011;52034;51.926;6.320;2023-07-20T00:38:47;8.37;;;5.80;;
58101;SDS011;52034;51.926;6.320;2023-07-20T00:39:47;6.23;;;5.63;;
58101;SDS011;52034;51.926;6.320;2023-07-20T00:40:47;9.17;;;6.43;;
58101;SDS011;52034;51.926;6.320;2023-07-20T00:41:51;11.38;;;8.40;;
58101;SDS011;52034;51.926;6.320;2023-07-20T00:42:52;10.63;;;8.37;;
58101;SDS011;52034;51.926;6.320;2023-07-20T00:43:57;10.68;;;8.05;;
58101;SDS011;52034;51.926;6.320;2023-07-20T00:44:57;9.70;;;8.70;;
58101;SDS011;52034;51.926;6.320;2023-07-20T00:45:58;10.17;;;8.23;;
58101;SDS011;52034;51.926;6.320;2023-07-20T00:46:59;10.05;;;8.00;;
58101;SDS011;52034;51.926;6.320;2023-07-20T00:48:00;9.73;;;7.17;;
58101;SDS011;52034;51.926;6.320;2023-07-20T00:49:02;11.90;;;8.20;;
58101;SDS011;52034;51.926;6.320;2023-07-20T00:50:02;24.93;;;8.47;;
58101;SDS011;52034;51.926;6.320;2023-07-20T00:51:06;9.82;;;8.45;;
58101;SDS011;52034;51.926;6.320;2023-07-20T00:52:06;9.13;;;7.80;;
58101;SDS011;52034;51.926;6.320;2023-07-20T00:53:07;9.30;;;8.05;;
58101;SDS011;52034;51.926;6.320;2023-07-20T00:54:08;10.40;;;8.10;;
58101;SDS011;52034;51.926;6.320;2023-07-20T00:56:10;10.27;;;8.40;;
58101;SDS011;52034;51.926;6.320;2023-07-20T00:57:11;9.07;;;7.88;;
58101;SDS011;52034;51.926;6.320;2023-07-20T00:58:14;9.48;;;8.48;;
58101;SDS011;52034;51.926;6.320;2023-07-20T00:59:14;9.63;;;8.33;;
58101;SDS011;52034;51.926;6.320;2023-07-20T01:00:15;11.00;;;7.93;;
58101;SDS011;52034;51.926;6.320;2023-07-20T01:01:17;10.73;;;7.97;;
58101;SDS011;52034;51.926;6.320;2023-07-20T01:02:18;10.50;;;8.10;;
58101;SDS011;52034;51.926;6.320;2023-07-20T01:03:18;10.63;;;8.10;;
58101;SDS011;52034;51.926;6.320;2023-07-20T01:04:18;9.53;;;7.57;;
58101;SDS011;52034;51.926;6.320;2023-07-20T01:05:19;9.73;;;7.57;;
58101;SDS011;52034;51.926;6.320;2023-07-20T01:06:26;9.23;;;7.25;;
58101;SDS011;52034;51.926;6.320;2023-07-20T01:07:39;9.48;;;6.75;;
58101;SDS011;52034;51.926;6.320;2023-07-20T01:08:56;10.75;;;7.55;;
58101;SDS011;52034;51.926;6.320;2023-07-20T01:11:31;10.50;;;7.15;;
58101;SDS011;52034;51.926;6.320;2023-07-20T01:13:42;7.35;;;6.65;;
58101;SDS011;52034;51.926;6.320;2023-07-20T01:14:43;9.75;;;7.70;;
58101;SDS011;52034;51.926;6.320;2023-07-20T01:15:53;9.07;;;7.22;;
58101;SDS011;52034;51.926;6.320;2023-07-20T01:16:57;9.75;;;7.22;;
58101;SDS011;52034;51.926;6.320;2023-07-20T01:17:58;10.32;;;6.43;;
58101;SDS011;52034;51.926;6.320;2023-07-20T01:19:01;10.63;;;6.53;;
58101;SDS011;52034;51.926;6.320;2023-07-20T01:20:01;11.43;;;6.60;;
58101;SDS011;52034;51.926;6.320;2023-07-20T01:21:13;9.10;;;6.53;;
58101;SDS011;52034;51.926;6.320;2023-07-20T01:25:07;9.10;;;6.55;;
58101;SDS011;52034;51.926;6.320;2023-07-20T01:26:12;10.27;;;6.80;;
58101;SDS011;52034;51.926;6.320;2023-07-20T01:31:54;7.97;;;6.50;;
58101;SDS011;52034;51.926;6.320;2023-07-20T01:32:57;8.88;;;7.15;;
58101;SDS011;52034;51.926;6.320;2023-07-20T01:34:00;6.90;;;6.20;;
58101;SDS011;52034;51.926;6.320;2023-07-20T01:35:01;10.75;;;6.95;;
58101;SDS011;52034;51.926;6.320;2023-07-20T01:36:04;10.73;;;7.20;;
58101;SDS011;52034;51.926;6.320;2023-07-20T01:37:05;8.30;;;6.50;;
58101;SDS011;52034;51.926;6.320;2023-07-20T01:38:07;8.10;;;6.38;;
58101;SDS011;52034;51.926;6.320;2023-07-20T01:39:08;9.15;;;6.28;;
58101;SDS011;52034;51.926;6.320;2023-07-20T01:40:09;5.83;;;5.20;;
58101;SDS011;52034;51.926;6.320;2023-07-20T01:42:11;7.93;;;6.63;;
58101;SDS011;52034;51.926;6.320;2023-07-20T01:43:12;10.70;;;7.00;;
58101;SDS011;52034;51.926;6.320;2023-07-20T01:44:13;7.70;;;6.40;;
58101;SDS011;52034;51.926;6.320;2023-07-20T01:45:13;9.77;;;6.93;;
58101;SDS011;52034;51.926;6.320;2023-07-20T01:46:14;8.00;;;6.77;;
58101;SDS011;52034;51.926;6.320;2023-07-20T01:47:14;9.43;;;7.00;;
58101;SDS011;52034;51.926;6.320;2023-07-20T01:48:14;7.63;;;6.40;;
58101;SDS011;52034;51.926;6.320;2023-07-20T01:49:15;7.30;;;5.95;;
58101;SDS011;52034;51.926;6.320;2023-07-20T01:50:16;7.47;;;6.53;;
58101;SDS011;52034;51.926;6.320;2023-07-20T01:51:16;9.33;;;6.03;;
58101;SDS011;52034;51.926;6.320;2023-07-20T01:52:18;7.50;;;6.30;;
58101;SDS011;52034;51.926;6.320;2023-07-20T01:53:18;8.63;;;6.80;;
58101;SDS011;52034;51.926;6.320;2023-07-20T01:54:22;8.57;;;6.78;;
58101;SDS011;52034;51.926;6.320;2023-07-20T01:55:22;9.43;;;6.57;;
58101;SDS011;52034;51.926;6.320;2023-07-20T01:56:23;9.47;;;6.30;;
58101;SDS011;52034;51.926;6.320;2023-07-20T01:57:24;6.43;;;5.60;;
58101;SDS011;52034;51.926;6.320;2023-07-20T01:58:24;8.00;;;6.50;;
58101;SDS011;52034;51.926;6.320;2023-07-20T01:59:24;8.10;;;6.13;;
58101;SDS011;52034;51.926;6.320;2023-07-20T02:00:25;6.73;;;6.10;;
58101;SDS011;52034;51.926;6.320;2023-07-20T02:01:25;7.93;;;6.50;;
58101;SDS011;52034;51.926;6.320;2023-07-20T02:02:28;7.35;;;6.45;;
58101;SDS011;52034;51.926;6.320;2023-07-20T02:03:29;7.20;;;6.03;;
58101;SDS011;52034;51.926;6.320;2023-07-20T02:04:29;7.07;;;5.70;;
58101;SDS011;52034;51.926;6.320;2023-07-20T02:05:29;8.50;;;6.80;;
58101;SDS011;52034;51.926;6.320;2023-07-20T02:06:30;7.30;;;6.00;;
58101;SDS011;52034;51.926;6.320;2023-07-20T02:07:30;6.80;;;6.10;;
58101;SDS011;52034;51.926;6.320;2023-07-20T02:08:31;7.70;;;5.97;;
58101;SDS011;52034;51.926;6.320;2023-07-20T02:09:31;6.70;;;5.83;;
58101;SDS011;52034;51.926;6.320;2023-07-20T02:10:31;6.40;;;5.57;;
58101;SDS011;52034;51.926;6.320;2023-07-20T02:11:31;6.23;;;5.50;;
58101;SDS011;52034;51.926;6.320;2023-07-20T02:12:32;7.63;;;5.00;;
58101;SDS011;52034;51.926;6.320;2023-07-20T02:13:32;5.37;;;4.57;;
58101;SDS011;52034;51.926;6.320;2023-07-20T02:14:33;5.10;;;4.70;;
58101;SDS011;52034;51.926;6.320;2023-07-20T02:15:33;5.10;;;4.60;;
58101;SDS011;52034;51.926;6.320;2023-07-20T02:16:33;4.13;;;3.73;;
58101;SDS011;52034;51.926;6.320;2023-07-20T02:17:34;4.30;;;3.90;;
58101;SDS011;52034;51.926;6.320;2023-07-20T02:18:34;4.57;;;3.80;;
58101;SDS011;52034;51.926;6.320;2023-07-20T02:19:37;4.68;;;4.20;;
58101;SDS011;52034;51.926;6.320;2023-07-20T02:20:37;4.13;;;3.50;;
58101;SDS011;52034;51.926;6.320;2023-07-20T02:21:38;4.57;;;4.17;;
58101;SDS011;52034;51.926;6.320;2023-07-20T02:22:39;3.58;;;3.25;;
58101;SDS011;52034;51.926;6.320;2023-07-20T02:23:40;3.75;;;3.40;;
58101;SDS011;52034;51.926;6.320;2023-07-20T02:24:40;4.37;;;3.40;;
58101;SDS011;52034;51.926;6.320;2023-07-20T02:25:40;3.37;;;2.90;;
58101;SDS011;52034;51.926;6.320;2023-07-20T02:26:41;4.17;;;2.90;;
58101;SDS011;52034;51.926;6.320;2023-07-20T02:27:42;3.22;;;3.03;;
58101;SDS011;52034;51.926;6.320;2023-07-20T02:28:42;3.40;;;3.10;;
58101;SDS011;52034;51.926;6.320;2023-07-20T02:29:43;3.07;;;2.87;;
58101;SDS011;52034;51.926;6.320;2023-07-20T02:30:45;2.97;;;2.78;;
58101;SDS011;52034;51.926;6.320;2023-07-20T02:31:46;3.78;;;2.83;;
58101;SDS011;52034;51.926;6.320;2023-07-20T02:32:46;2.70;;;2.50;;
58101;SDS011;52034;51.926;6.320;2023-07-20T02:33:48;3.20;;;2.92;;
58101;SDS011;52034;51.926;6.320;2023-07-20T02:34:48;3.23;;;2.93;;
58101;SDS011;52034;51.926;6.320;2023-07-20T02:35:49;3.37;;;3.07;;
58101;SDS011;52034;51.926;6.320;2023-07-20T02:36:49;3.13;;;2.83;;
58101;SDS011;52034;51.926;6.320;2023-07-20T02:37:50;4.23;;;2.90;;
58101;SDS011;52034;51.926;6.320;2023-07-20T02:38:50;5.27;;;3.33;;
58101;SDS011;52034;51.926;6.320;2023-07-20T02:39:50;3.07;;;2.83;;
58101;SDS011;52034;51.926;6.320;2023-07-20T02:40:51;3.93;;;3.53;;
58101;SDS011;52034;51.926;6.320;2023-07-20T02:41:51;3.80;;;3.43;;
58101;SDS011;52034;51.926;6.320;2023-07-20T02:42:52;2.90;;;2.70;;
58101;SDS011;52034;51.926;6.320;2023-07-20T02:43:52;3.63;;;3.33;;
58101;SDS011;52034;51.926;6.320;2023-07-20T02:44:52;3.17;;;2.97;;
58101;SDS011;52034;51.926;6.320;2023-07-20T02:45:53;3.57;;;3.23;;
58101;SDS011;52034;51.926;6.320;2023-07-20T02:46:53;3.87;;;3.47;;
58101;SDS011;52034;51.926;6.320;2023-07-20T02:47:53;3.90;;;3.30;;
58101;SDS011;52034;51.926;6.320;2023-07-20T02:48:54;3.43;;;3.13;;
58101;SDS011;52034;51.926;6.320;2023-07-20T02:49:54;4.00;;;3.23;;
58101;SDS011;52034;51.926;6.320;2023-07-20T02:50:54;3.50;;;3.07;;
58101;SDS011;52034;51.926;6.320;2023-07-20T02:51:55;3.60;;;3.30;;
58101;SDS011;52034;51.926;6.320;2023-07-20T02:52:55;3.80;;;3.40;;
58101;SDS011;52034;51.926;6.320;2023-07-20T02:53:56;4.07;;;3.60;;
58101;SDS011;52034;51.926;6.320;2023-07-20T02:54:56;4.50;;;4.10;;
58101;SDS011;52034;51.926;6.320;2023-07-20T02:55:57;5.40;;;4.83;;
58101;SDS011;52034;51.926;6.320;2023-07-20T02:56:57;5.77;;;5.27;;
58101;SDS011;52034;51.926;6.320;2023-07-20T02:57:57;6.40;;;5.40;;
58101;SDS011;52034;51.926;6.320;2023-07-20T02:58:58;6.73;;;5.43;;
58101;SDS011;52034;51.926;6.320;2023-07-20T02:59:58;6.43;;;5.77;;
58101;SDS011;52034;51.926;6.320;2023-07-20T03:00:58;6.53;;;5.77;;
58101;SDS011;52034;51.926;6.320;2023-07-20T03:01:59;6.20;;;5.60;;
58101;SDS011;52034;51.926;6.320;2023-07-20T03:02:59;6.97;;;5.93;;
58101;SDS011;52034;51.926;6.320;2023-07-20T03:03:59;6.40;;;5.80;;
58101;SDS011;52034;51.926;6.320;2023-07-20T03:04:59;5.90;;;5.40;;
58101;SDS011;52034;51.926;6.320;2023-07-20T03:06:00;6.25;;;5.65;;
58101;SDS011;52034;51.926;6.320;2023-07-20T03:07:03;6.28;;;5.78;;
58101;SDS011;52034;51.926;6.320;2023-07-20T03:08:08;6.35;;;5.78;;
58101;SDS011;52034;51.926;6.320;2023-07-20T03:09:09;6.80;;;6.03;;
58101;SDS011;52034;51.926;6.320;2023-07-20T03:10:09;6.67;;;6.07;;
58101;SDS011;52034;51.926;6.320;2023-07-20T03:11:10;6.13;;;5.53;;
58101;SDS011;52034;51.926;6.320;2023-07-20T03:12:10;6.30;;;5.70;;
58101;SDS011;52034;51.926;6.320;2023-07-20T03:13:11;7.50;;;5.70;;
58101;SDS011;52034;51.926;6.320;2023-07-20T03:14:12;6.97;;;6.25;;
58101;SDS011;52034;51.926;6.320;2023-07-20T03:15:14;6.13;;;5.53;;
58101;SDS011;52034;51.926;6.320;2023-07-20T03:16:15;7.10;;;6.00;;
58101;SDS011;52034;51.926;6.320;2023-07-20T03:17:17;6.38;;;5.78;;
58101;SDS011;52034;51.926;6.320;2023-07-20T03:18:19;5.95;;;5.43;;
58101;SDS011;52034;51.926;6.320;2023-07-20T03:19:20;6.30;;;5.70;;
58101;SDS011;52034;51.926;6.320;2023-07-20T03:20:21;6.30;;;5.68;;
58101;SDS011;52034;51.926;6.320;2023-07-20T03:21:22;5.80;;;5.30;;
58101;SDS011;52034;51.926;6.320;2023-07-20T03:22:22;6.93;;;6.33;;
58101;SDS011;52034;51.926;6.320;2023-07-20T03:23:24;6.13;;;5.60;;
58101;SDS011;52034;51.926;6.320;2023-07-20T03:24:26;7.78;;;6.32;;
58101;SDS011;52034;51.926;6.320;2023-07-20T03:25:27;8.37;;;6.33;;
58101;SDS011;52034;51.926;6.320;2023-07-20T03:26:27;8.27;;;7.00;;
58101;SDS011;52034;51.926;6.320;2023-07-20T03:27:28;7.40;;;6.70;;
58101;SDS011;52034;51.926;6.320;2023-07-20T03:28:29;7.03;;;6.43;;
58101;SDS011;52034;51.926;6.320;2023-07-20T03:29:31;7.50;;;6.30;;
58101;SDS011;52034;51.926;6.320;2023-07-20T03:30:33;6.80;;;6.10;;
58101;SDS011;52034;51.926;6.320;2023-07-20T03:31:34;8.57;;;6.07;;
58101;SDS011;52034;51.926;6.320;2023-07-20T03:32:35;6.77;;;5.80;;
58101;SDS011;52034;51.926;6.320;2023-07-20T03:33:36;6.50;;;5.53;;
58101;SDS011;52034;51.926;6.320;2023-07-20T03:34:36;6.23;;;5.43;;
58101;SDS011;52034;51.926;6.320;2023-07-20T03:35:37;6.20;;;5.63;;
58101;SDS011;52034;51.926;6.320;2023-07-20T03:36:38;6.57;;;5.53;;
58101;SDS011;52034;51.926;6.320;2023-07-20T03:37:38;6.00;;;5.47;;
58101;SDS011;52034;51.926;6.320;2023-07-20T03:38:38;5.90;;;5.40;;
58101;SDS011;52034;51.926;6.320;2023-07-20T03:39:39;7.20;;;5.43;;
58101;SDS011;52034;51.926;6.320;2023-07-20T03:40:39;7.83;;;5.87;;
58101;SDS011;52034;51.926;6.320;2023-07-20T03:41:49;7.25;;;6.55;;
58101;SDS011;52034;51.926;6.320;2023-07-20T03:42:49;7.00;;;6.40;;
58101;SDS011;52034;51.926;6.320;2023-07-20T03:43:49;7.23;;;6.57;;
58101;SDS011;52034;51.926;6.320;2023-07-20T03:44:50;6.73;;;5.80;;
58101;SDS011;52034;51.926;6.320;2023-07-20T03:45:51;8.83;;;8.03;;
58101;SDS011;52034;51.926;6.320;2023-07-20T03:46:52;7.70;;;6.90;;
58101;SDS011;52034;51.926;6.320;2023-07-20T03:47:52;8.60;;;7.73;;
58101;SDS011;52034;51.926;6.320;2023-07-20T03:48:53;8.90;;;7.80;;
58101;SDS011;52034;51.926;6.320;2023-07-20T03:49:53;10.17;;;8.77;;
58101;SDS011;52034;51.926;6.320;2023-07-20T03:50:53;10.33;;;8.50;;
58101;SDS011;52034;51.926;6.320;2023-07-20T03:51:54;10.43;;;9.10;;
58101;SDS011;52034;51.926;6.320;2023-07-20T03:52:55;13.60;;;8.95;;
58101;SDS011;52034;51.926;6.320;2023-07-20T03:53:56;11.40;;;9.17;;
58101;SDS011;52034;51.926;6.320;2023-07-20T03:54:56;11.57;;;9.27;;
58101;SDS011;52034;51.926;6.320;2023-07-20T03:55:57;10.83;;;9.20;;
58101;SDS011;52034;51.926;6.320;2023-07-20T03:56:57;10.00;;;8.70;;
58101;SDS011;52034;51.926;6.320;2023-07-20T03:57:58;10.33;;;8.93;;
58101;SDS011;52034;51.926;6.320;2023-07-20T03:58:58;10.70;;;7.97;;
58101;SDS011;52034;51.926;6.320;2023-07-20T03:59:58;8.63;;;7.73;;
58101;SDS011;52034;51.926;6.320;2023-07-20T04:00:59;8.67;;;7.77;;
58101;SDS011;52034;51.926;6.320;2023-07-20T04:01:59;8.80;;;7.97;;
58101;SDS011;52034;51.926;6.320;2023-07-20T04:03:00;7.70;;;7.00;;
58101;SDS011;52034;51.926;6.320;2023-07-20T04:04:00;8.10;;;7.28;;
58101;SDS011;52034;51.926;6.320;2023-07-20T04:05:01;9.43;;;8.43;;
58101;SDS011;52034;51.926;6.320;2023-07-20T04:06:01;9.53;;;7.83;;
58101;SDS011;52034;51.926;6.320;2023-07-20T04:07:01;9.20;;;7.90;;
58101;SDS011;52034;51.926;6.320;2023-07-20T04:08:02;8.27;;;7.47;;
58101;SDS011;52034;51.926;6.320;2023-07-20T04:09:03;10.53;;;9.13;;
58101;SDS011;52034;51.926;6.320;2023-07-20T04:10:05;9.15;;;8.20;;
58101;SDS011;52034;51.926;6.320;2023-07-20T04:11:05;11.77;;;9.17;;
58101;SDS011;52034;51.926;6.320;2023-07-20T04:12:06;9.20;;;8.30;;
58101;SDS011;52034;51.926;6.320;2023-07-20T04:13:06;8.93;;;8.13;;
58101;SDS011;52034;51.926;6.320;2023-07-20T04:14:07;9.27;;;7.90;;
58101;SDS011;52034;51.926;6.320;2023-07-20T04:15:07;8.63;;;7.60;;
58101;SDS011;52034;51.926;6.320;2023-07-20T04:16:08;8.05;;;7.25;;
58101;SDS011;52034;51.926;6.320;2023-07-20T04:17:08;7.87;;;7.10;;
58101;SDS011;52034;51.926;6.320;2023-07-20T04:18:12;7.55;;;6.82;;
58101;SDS011;52034;51.926;6.320;2023-07-20T04:19:12;7.33;;;6.73;;
58101;SDS011;52034;51.926;6.320;2023-07-20T04:20:13;7.60;;;6.90;;
58101;SDS011;52034;51.926;6.320;2023-07-20T04:21:13;8.73;;;6.83;;
58101;SDS011;52034;51.926;6.320;2023-07-20T04:22:13;6.53;;;6.03;;
58101;SDS011;52034;51.926;6.320;2023-07-20T04:23:15;8.13;;;6.10;;
58101;SDS011;52034;51.926;6.320;2023-07-20T04:24:16;6.07;;;5.57;;
58101;SDS011;52034;51.926;6.320;2023-07-20T04:25:19;5.30;;;4.80;;
58101;SDS011;52034;51.926;6.320;2023-07-20T04:26:20;7.05;;;5.00;;
58101;SDS011;52034;51.926;6.320;2023-07-20T04:27:20;5.43;;;4.97;;
58101;SDS011;52034;51.926;6.320;2023-07-20T04:28:21;5.90;;;4.50;;
58101;SDS011;52034;51.926;6.320;2023-07-20T04:29:23;4.93;;;4.53;;
58101;SDS011;52034;51.926;6.320;2023-07-20T04:30:23;4.57;;;4.07;;
58101;SDS011;52034;51.926;6.320;2023-07-20T04:31:23;5.50;;;5.00;;
58101;SDS011;52034;51.926;6.320;2023-07-20T04:32:24;5.10;;;4.70;;
58101;SDS011;52034;51.926;6.320;2023-07-20T04:33:26;4.72;;;4.32;;
58101;SDS011;52034;51.926;6.320;2023-07-20T04:34:29;5.25;;;4.75;;
58101;SDS011;52034;51.926;6.320;2023-07-20T04:35:51;5.20;;;4.73;;
58101;SDS011;52034;51.926;6.320;2023-07-20T04:36:54;5.07;;;4.57;;
58101;SDS011;52034;51.926;6.320;2023-07-20T04:38:56;5.07;;;4.60;;
58101;SDS011;52034;51.926;6.320;2023-07-20T04:39:57;5.90;;;5.25;;
58101;SDS011;52034;51.926;6.320;2023-07-20T04:40:57;5.00;;;4.60;;
58101;SDS011;52034;51.926;6.320;2023-07-20T04:41:58;10.00;;;4.90;;
58101;SDS011;52034;51.926;6.320;2023-07-20T04:42:59;6.13;;;5.20;;
58101;SDS011;52034;51.926;6.320;2023-07-20T04:43:59;5.33;;;4.83;;
58101;SDS011;52034;51.926;6.320;2023-07-20T04:45:02;5.47;;;4.93;;
58101;SDS011;52034;51.926;6.320;2023-07-20T04:46:03;4.97;;;4.55;;
58101;SDS011;52034;51.926;6.320;2023-07-20T04:47:06;5.55;;;4.95;;
58101;SDS011;52034;51.926;6.320;2023-07-20T04:48:11;5.90;;;5.40;;
58101;SDS011;52034;51.926;6.320;2023-07-20T04:49:17;7.00;;;5.32;;
58101;SDS011;52034;51.926;6.320;2023-07-20T04:50:19;7.68;;;4.95;;
58101;SDS011;52034;51.926;6.320;2023-07-20T04:51:19;4.93;;;4.50;;
58101;SDS011;52034;51.926;6.320;2023-07-20T04:52:22;5.00;;;4.60;;
58101;SDS011;52034;51.926;6.320;2023-07-20T04:53:23;6.03;;;4.77;;
58101;SDS011;52034;51.926;6.320;2023-07-20T04:54:23;7.20;;;5.20;;
58101;SDS011;52034;51.926;6.320;2023-07-20T04:55:24;4.77;;;4.33;;
58101;SDS011;52034;51.926;6.320;2023-07-20T04:56:25;5.93;;;5.43;;
58101;SDS011;52034;51.926;6.320;2023-07-20T04:57:27;4.78;;;4.38;;
58101;SDS011;52034;51.926;6.320;2023-07-20T04:58:27;6.67;;;4.90;;
58101;SDS011;52034;51.926;6.320;2023-07-20T04:59:29;5.22;;;4.63;;
58101;SDS011;52034;51.926;6.320;2023-07-20T05:00:29;7.93;;;5.47;;
58101;SDS011;52034;51.926;6.320;2023-07-20T05:01:30;7.60;;;5.00;;
58101;SDS011;52034;51.926;6.320;2023-07-20T05:02:30;7.60;;;4.97;;
58101;SDS011;52034;51.926;6.320;2023-07-20T05:03:31;6.33;;;5.03;;
58101;SDS011;52034;51.926;6.320;2023-07-20T05:04:31;8.47;;;5.10;;
58101;SDS011;52034;51.926;6.320;2023-07-20T05:05:31;6.87;;;4.57;;
58101;SDS011;52034;51.926;6.320;2023-07-20T05:06:33;5.38;;;4.97;;
58101;SDS011;52034;51.926;6.320;2023-07-20T05:07:34;6.35;;;4.25;;
58101;SDS011;52034;51.926;6.320;2023-07-20T05:08:34;5.57;;;4.83;;
58101;SDS011;52034;51.926;6.320;2023-07-20T05:09:35;6.20;;;4.60;;
58101;SDS011;52034;51.926;6.320;2023-07-20T05:10:35;6.83;;;4.90;;
58101;SDS011;52034;51.926;6.320;2023-07-20T05:11:36;4.90;;;4.50;;
58101;SDS011;52034;51.926;6.320;2023-07-20T05:12:37;4.75;;;4.30;;
58101;SDS011;52034;51.926;6.320;2023-07-20T05:13:37;6.37;;;4.90;;
58101;SDS011;52034;51.926;6.320;2023-07-20T05:14:38;5.60;;;5.03;;
58101;SDS011;52034;51.926;6.320;2023-07-20T05:15:39;6.20;;;5.18;;
58101;SDS011;52034;51.926;6.320;2023-07-20T05:16:41;4.70;;;4.30;;
58101;SDS011;52034;51.926;6.320;2023-07-20T05:17:42;7.60;;;4.73;;
58101;SDS011;52034;51.926;6.320;2023-07-20T05:18:42;5.03;;;4.40;;
58101;SDS011;52034;51.926;6.320;2023-07-20T05:19:43;5.20;;;4.70;;
58101;SDS011;52034;51.926;6.320;2023-07-20T05:20:45;4.57;;;4.00;;
58101;SDS011;52034;51.926;6.320;2023-07-20T05:21:46;5.15;;;4.40;;
58101;SDS011;52034;51.926;6.320;2023-07-20T05:22:46;7.27;;;4.93;;
58101;SDS011;52034;51.926;6.320;2023-07-20T05:23:47;6.33;;;4.17;;
58101;SDS011;52034;51.926;6.320;2023-07-20T05:24:48;6.82;;;5.00;;
58101;SDS011;52034;51.926;6.320;2023-07-20T05:25:54;4.70;;;4.30;;
58101;SDS011;52034;51.926;6.320;2023-07-20T05:26:56;5.97;;;5.38;;
58101;SDS011;52034;51.926;6.320;2023-07-20T05:27:57;4.68;;;3.92;;
58101;SDS011;52034;51.926;6.320;2023-07-20T05:28:58;5.53;;;4.70;;
58101;SDS011;52034;51.926;6.320;2023-07-20T05:29:58;4.93;;;4.43;;
58101;SDS011;52034;51.926;6.320;2023-07-20T05:30:58;5.23;;;4.30;;
58101;SDS011;52034;51.926;6.320;2023-07-20T05:31:59;4.82;;;4.32;;
58101;SDS011;52034;51.926;6.320;2023-07-20T05:33:00;5.40;;;4.30;;
58101;SDS011;52034;51.926;6.320;2023-07-20T05:34:00;4.97;;;4.07;;
58101;SDS011;52034;51.926;6.320;2023-07-20T05:35:00;4.60;;;4.10;;
58101;SDS011;52034;51.926;6.320;2023-07-20T05:36:01;5.07;;;4.00;;
58101;SDS011;52034;51.926;6.320;2023-07-20T05:37:01;4.60;;;3.90;;
58101;SDS011;52034;51.926;6.320;2023-07-20T05:38:02;4.50;;;4.10;;
58101;SDS011;52034;51.926;6.320;2023-07-20T05:39:04;5.10;;;4.05;;
58101;SDS011;52034;51.926;6.320;2023-07-20T05:40:04;4.43;;;4.10;;
58101;SDS011;52034;51.926;6.320;2023-07-20T05:41:06;3.75;;;3.42;;
58101;SDS011;52034;51.926;6.320;2023-07-20T05:42:10;4.40;;;4.00;;
58101;SDS011;52034;51.926;6.320;2023-07-20T05:43:10;4.33;;;3.80;;
58101;SDS011;52034;51.926;6.320;2023-07-20T05:44:11;4.30;;;3.70;;
58101;SDS011;52034;51.926;6.320;2023-07-20T05:45:12;4.97;;;3.50;;
58101;SDS011;52034;51.926;6.320;2023-07-20T05:46:12;4.53;;;3.55;;
58101;SDS011;52034;51.926;6.320;2023-07-20T05:47:12;4.70;;;3.60;;
58101;SDS011;52034;51.926;6.320;2023-07-20T05:48:13;4.73;;;4.03;;
58101;SDS011;52034;51.926;6.320;2023-07-20T05:49:13;4.30;;;3.90;;
58101;SDS011;52034;51.926;6.320;2023-07-20T05:50:14;4.18;;;3.83;;
58101;SDS011;52034;51.926;6.320;2023-07-20T05:51:14;5.97;;;4.03;;
58101;SDS011;52034;51.926;6.320;2023-07-20T05:52:15;6.23;;;4.27;;
58101;SDS011;52034;51.926;6.320;2023-07-20T05:53:15;5.33;;;3.97;;
58101;SDS011;52034;51.926;6.320;2023-07-20T05:54:16;4.80;;;4.30;;
58101;SDS011;52034;51.926;6.320;2023-07-20T05:55:16;4.50;;;3.90;;
58101;SDS011;52034;51.926;6.320;2023-07-20T05:56:17;6.00;;;3.90;;
58101;SDS011;52034;51.926;6.320;2023-07-20T05:57:17;5.10;;;4.20;;
58101;SDS011;52034;51.926;6.320;2023-07-20T05:58:17;4.53;;;3.80;;
58101;SDS011;52034;51.926;6.320;2023-07-20T05:59:18;4.60;;;3.53;;
58101;SDS011;52034;51.926;6.320;2023-07-20T06:01:26;6.38;;;3.55;;
58101;SDS011;52034;51.926;6.320;2023-07-20T06:02:28;4.53;;;3.20;;
58101;SDS011;52034;51.926;6.320;2023-07-20T06:03:28;4.13;;;3.70;;
58101;SDS011;52034;51.926;6.320;2023-07-20T06:04:29;4.60;;;3.70;;
58101;SDS011;52034;51.926;6.320;2023-07-20T06:05:30;4.90;;;4.20;;
58101;SDS011;52034;51.926;6.320;2023-07-20T06:06:30;4.20;;;3.22;;
58101;SDS011;52034;51.926;6.320;2023-07-20T06:07:30;4.53;;;2.40;;
58101;SDS011;52034;51.926;6.320;2023-07-20T06:08:31;3.90;;;3.10;;
58101;SDS011;52034;51.926;6.320;2023-07-20T06:09:32;3.23;;;2.43;;
58101;SDS011;52034;51.926;6.320;2023-07-20T06:10:32;2.83;;;2.63;;
58101;SDS011;52034;51.926;6.320;2023-07-20T06:11:32;3.03;;;2.70;;
58101;SDS011;52034;51.926;6.320;2023-07-20T06:12:33;3.87;;;2.60;;
58101;SDS011;52034;51.926;6.320;2023-07-20T06:13:33;3.20;;;2.67;;
58101;SDS011;52034;51.926;6.320;2023-07-20T06:14:34;3.93;;;2.80;;
58101;SDS011;52034;51.926;6.320;2023-07-20T06:15:34;4.80;;;2.60;;
58101;SDS011;52034;51.926;6.320;2023-07-20T06:16:35;3.67;;;2.43;;
58101;SDS011;52034;51.926;6.320;2023-07-20T06:17:35;4.27;;;2.50;;
58101;SDS011;52034;51.926;6.320;2023-07-20T06:18:36;3.30;;;2.40;;
58101;SDS011;52034;51.926;6.320;2023-07-20T06:19:36;2.10;;;2.00;;
58101;SDS011;52034;51.926;6.320;2023-07-20T06:20:36;3.73;;;1.90;;
58101;SDS011;52034;51.926;6.320;2023-07-20T06:21:37;2.53;;;1.70;;